Time;durP1;ratioP1;P1;durP2;ratioP2;P2;SDS_P1;SDS_P2;PMS_P1;PMS_P2;Temp;Humidity;BMP_temperature;BMP_pressure;BME280_temperature;BME280_humidity;BME280_pressure;Samples;Min_cycle;Max_cycle;Signal;HPM_P1;HPM_P2
2023/07/28 06:57:11;;;;;;;5.95;4.05;;;;;;;17.18;99.59;96066.22;2096968;28;20534;-67
2023/07/28 06:59:47;;;;;;;10.02;4.47;;;;;;;17.33;97.95;96064.16;2103234;27;20539;-67
2023/07/28 07:02:33;;;;;;;8.75;4.55;;;;;;;17.44;96.84;96062.31;2096812;28;20539;-67
2023/07/28 07:05:23;;;;;;;7.43;4.20;;;;;;;17.54;95.11;96067.69;2092296;28;20526;-67
2023/07/28 07:08:06;;;;;;;4.45;3.40;;;;;;;17.60;94.21;96063.72;2090316;28;20544;-69
2023/07/28 07:09:08;;;;;;;6.10;3.63;;;;;;;17.66;94.09;96068.50;2086350;28;20216;-70
2023/07/28 07:10:09;;;;;;;6.07;4.05;;;;;;;17.83;93.72;96066.25;2088782;28;20184;-70
2023/07/28 07:12:49;;;;;;;7.07;3.20;;;;;;;17.98;91.66;96066.78;2113304;27;20529;-67
2023/07/28 07:13:51;;;;;;;6.88;3.88;;;;;;;18.06;92.04;96072.28;2101501;27;20280;-68
2023/07/28 07:16:41;;;;;;;6.65;3.33;;;;;;;17.99;93.07;96073.75;2089577;28;20561;-68
2023/07/28 07:19:31;;;;;;;7.60;3.83;;;;;;;18.22;92.64;96077.94;2113172;27;21018;-68
2023/07/28 07:22:28;;;;;;;6.80;3.40;;;;;;;18.13;91.43;96083.16;2088800;28;20544;-67
2023/07/28 08:01:39;;;;;;;5.05;2.45;;;;;;;18.22;88.53;96100.88;2092045;28;20923;-67
2023/07/28 08:04:02;;;;;;;5.80;2.22;;;;;;;18.41;87.79;96106.28;2086275;27;20568;-67
2023/07/28 08:05:04;;;;;;;6.22;1.90;;;;;;;18.44;86.82;96113.13;2082027;28;20200;-68
2023/07/28 08:07:47;;;;;;;2.67;1.85;;;;;;;18.64;86.43;96105.28;2101710;27;20549;-67
2023/07/28 08:08:50;;;;;;;3.28;2.08;;;;;;;18.65;86.07;96109.63;2090636;28;20831;-68
2023/07/28 08:09:52;;;;;;;6.95;2.03;;;;;;;18.62;85.11;96115.19;2080236;28;20193;-68
2023/07/28 08:10:54;;;;;;;4.22;2.42;;;;;;;18.71;85.74;96109.91;2080318;28;20276;-68
2023/07/28 08:11:55;;;;;;;3.95;2.40;;;;;;;18.71;84.48;96114.38;2079786;28;20258;-68
2023/07/28 08:12:57;;;;;;;5.20;2.58;;;;;;;18.77;84.16;96117.31;2079903;28;20276;-68
2023/07/28 08:13:59;;;;;;;4.00;2.30;;;;;;;19.01;83.73;96115.38;2071643;28;20226;-68
2023/07/28 08:15:00;;;;;;;4.93;2.35;;;;;;;19.20;83.44;96119.91;2071875;28;20194;-67
2023/07/28 08:16:02;;;;;;;4.97;1.92;;;;;;;19.15;82.96;96124.75;2073960;28;20212;-67
2023/07/28 08:17:03;;;;;;;3.30;2.00;;;;;;;19.29;82.41;96121.72;2071875;28;20237;-68
2023/07/28 08:18:05;;;;;;;5.15;2.38;;;;;;;19.45;81.84;96125.66;2071609;28;20197;-68
2023/07/28 08:19:06;;;;;;;3.67;1.98;;;;;;;19.55;80.79;96118.56;2070550;28;20229;-68
2023/07/28 08:20:09;;;;;;;5.15;1.80;;;;;;;19.36;80.85;96122.88;2071867;28;20221;-68
2023/07/28 08:21:10;;;;;;;5.03;1.92;;;;;;;19.34;81.00;96118.69;2074632;28;20557;-68
2023/07/28 08:22:12;;;;;;;5.53;1.83;;;;;;;19.52;80.46;96122.31;2071629;28;20569;-68
2023/07/28 08:23:13;;;;;;;5.05;2.00;;;;;;;19.74;80.58;96123.03;2071723;28;20197;-67
2023/07/28 08:24:15;;;;;;;4.40;1.85;;;;;;;19.87;79.84;96115.69;2073686;28;20280;-68
2023/07/28 08:25:17;;;;;;;4.05;1.95;;;;;;;19.97;79.42;96121.00;2070155;28;20231;-67
2023/07/28 08:26:19;;;;;;;3.63;1.70;;;;;;;19.86;79.42;96124.63;2072491;28;20266;-68
2023/07/28 08:27:24;;;;;;;4.35;2.38;;;;;;;19.94;79.29;96129.22;2071842;28;20317;-68
2023/07/28 08:28:25;;;;;;;6.85;2.05;;;;;;;19.93;79.65;96130.19;2071469;28;20194;-67
2023/07/28 08:29:27;;;;;;;4.30;1.98;;;;;;;19.86;79.41;96132.56;2071874;28;20242;-68
2023/07/28 08:30:28;;;;;;;4.53;1.98;;;;;;;19.88;79.13;96127.13;2071712;28;20256;-68
2023/07/28 08:31:30;;;;;;;3.88;2.30;;;;;;;19.95;78.91;96128.25;2072129;28;20194;-68
2023/07/28 08:32:32;;;;;;;3.25;1.75;;;;;;;20.25;77.78;96130.88;2074888;28;20656;-68
2023/07/28 08:33:33;;;;;;;3.28;1.88;;;;;;;20.22;78.25;96126.69;2071292;28;20229;-68
2023/07/28 08:34:35;;;;;;;4.78;1.55;;;;;;;20.13;78.69;96131.03;2072452;28;20206;-68
2023/07/28 08:35:36;;;;;;;4.38;1.90;;;;;;;20.69;77.14;96132.03;2069515;28;20646;-68
2023/07/28 08:36:38;;;;;;;4.30;2.20;;;;;;;21.10;76.46;96123.00;2072020;28;20610;-68
2023/07/28 08:37:39;;;;;;;3.30;2.13;;;;;;;21.41;75.93;96126.19;2073900;28;20285;-68
2023/07/28 08:38:41;;;;;;;3.85;2.08;;;;;;;21.46;74.65;96121.25;2074997;28;20221;-68
2023/07/28 08:39:43;;;;;;;3.35;1.85;;;;;;;21.45;74.23;96129.38;2071871;28;20182;-68
2023/07/28 08:40:45;;;;;;;3.17;2.28;;;;;;;21.34;74.40;96123.31;2071543;28;20228;-67
2023/07/28 08:41:46;;;;;;;7.72;1.83;;;;;;;21.54;74.72;96128.47;2071747;28;20228;-67
2023/07/28 08:42:49;;;;;;;5.45;1.80;;;;;;;20.95;74.84;96122.63;2071630;28;20729;-67
2023/07/28 08:43:53;;;;;;;5.10;2.10;;;;;;;21.09;75.56;96110.69;2071660;28;20224;-67
2023/07/28 08:44:55;;;;;;;3.05;1.77;;;;;;;21.20;75.09;96126.44;2068425;28;20205;-67
2023/07/28 08:45:56;;;;;;;8.77;2.40;;;;;;;21.35;74.98;96124.94;2071637;28;20201;-67
2023/07/28 08:46:59;;;;;;;7.60;1.80;;;;;;;21.48;74.52;96129.06;2073854;28;20203;-67
2023/07/28 08:48:01;;;;;;;4.07;1.77;;;;;;;21.78;73.17;96135.06;2073428;28;20217;-67
2023/07/28 08:49:03;;;;;;;3.75;2.03;;;;;;;21.65;72.98;96130.13;2071266;28;20279;-67
2023/07/28 08:50:05;;;;;;;4.57;1.90;;;;;;;21.54;72.58;96139.94;2070250;28;20256;-67
2023/07/28 08:51:10;;;;;;;4.65;2.00;;;;;;;21.37;72.71;96130.97;2071583;28;20202;-67
2023/07/28 08:52:15;;;;;;;5.30;1.95;;;;;;;21.56;72.98;96131.88;2070853;28;20528;-67
2023/07/28 08:53:17;;;;;;;2.97;2.05;;;;;;;21.71;73.11;96132.16;2071661;28;20319;-66
2023/07/28 08:54:18;;;;;;;3.15;1.92;;;;;;;22.04;73.46;96129.00;2072059;28;20576;-67
2023/07/28 08:55:20;;;;;;;6.45;1.70;;;;;;;22.01;72.19;96130.13;2072763;28;20220;-67
2023/07/28 08:56:23;;;;;;;4.40;2.10;;;;;;;21.83;72.27;96135.47;2067743;28;20194;-67
2023/07/28 08:57:25;;;;;;;4.00;2.65;;;;;;;21.56;73.56;96131.00;2071494;28;20229;-67
2023/07/28 08:58:26;;;;;;;5.50;1.70;;;;;;;21.49;73.72;96131.59;2070954;28;20268;-67
2023/07/28 08:59:29;;;;;;;2.85;1.60;;;;;;;21.27;73.96;96138.16;2071282;28;20241;-67
2023/07/28 09:00:31;;;;;;;3.22;1.77;;;;;;;21.14;74.45;96135.84;2071335;28;20198;-67
2023/07/28 09:01:38;;;;;;;4.78;2.25;;;;;;;21.05;74.01;96131.38;2075066;28;20204;-68
2023/07/28 09:02:41;;;;;;;5.88;2.22;;;;;;;20.89;74.45;96134.69;2071121;28;20174;-67
2023/07/28 09:03:43;;;;;;;3.42;1.90;;;;;;;20.95;74.99;96141.22;2069759;28;20228;-67
2023/07/28 09:04:48;;;;;;;4.60;1.90;;;;;;;20.62;75.54;96149.53;2073595;28;20447;-68
2023/07/28 09:05:49;;;;;;;7.47;1.80;;;;;;;20.45;76.42;96148.44;2073296;28;20208;-67
2023/07/28 09:06:51;;;;;;;3.78;1.92;;;;;;;20.42;76.45;96145.22;2072854;28;20194;-67
2023/07/28 09:07:53;;;;;;;8.75;2.20;;;;;;;20.45;76.45;96137.81;2070407;28;20573;-67
2023/07/28 09:08:56;;;;;;;7.00;1.90;;;;;;;20.63;76.22;96143.25;2070891;28;20314;-67
2023/07/28 09:10:03;;;;;;;3.10;1.63;;;;;;;20.72;75.24;96144.22;2077640;28;20201;-67
2023/07/28 09:11:06;;;;;;;3.42;1.88;;;;;;;20.90;74.62;96146.97;2071248;28;20198;-67
2023/07/28 09:12:08;;;;;;;7.03;2.60;;;;;;;20.92;74.95;96150.28;2071465;28;20593;-67
2023/07/28 09:13:15;;;;;;;3.15;1.60;;;;;;;21.15;75.06;96149.94;2072470;28;20232;-67
2023/07/28 09:14:23;;;;;;;5.00;2.53;;;;;;;20.96;74.22;96141.09;2079686;28;20221;-67
2023/07/28 09:15:25;;;;;;;3.05;1.85;;;;;;;20.95;74.36;96147.38;2079600;28;20236;-67
2023/07/28 09:16:28;;;;;;;4.90;1.88;;;;;;;21.01;74.21;96146.78;2081788;28;20193;-67
2023/07/28 09:17:32;;;;;;;3.63;1.58;;;;;;;21.24;74.09;96150.88;2083229;28;20206;-67
2023/07/28 09:18:33;;;;;;;7.68;1.77;;;;;;;21.30;74.36;96153.75;2078975;28;20228;-67
2023/07/28 09:19:48;;;;;;;3.63;1.98;;;;;;;21.54;73.89;96139.94;2075654;28;20663;-67
2023/07/28 09:20:50;;;;;;;3.53;1.58;;;;;;;21.69;73.19;96142.13;2071601;28;20335;-67
2023/07/28 09:21:59;;;;;;;4.43;1.83;;;;;;;21.62;73.17;96138.38;2073410;28;20247;-67
2023/07/28 09:23:01;;;;;;;2.22;1.52;;;;;;;21.49;73.51;96144.03;2075884;28;20262;-67
2023/07/28 09:24:05;;;;;;;5.20;1.60;;;;;;;21.56;72.89;96145.16;2073778;28;20329;-68
2023/07/28 09:25:17;;;;;;;6.95;2.00;;;;;;;21.65;72.41;96146.06;2073705;28;20193;-68
2023/07/28 09:26:18;;;;;;;5.10;1.75;;;;;;;21.53;72.38;96150.72;2074082;28;20201;-68
2023/07/28 09:27:25;;;;;;;8.35;1.92;;;;;;;21.50;73.40;96149.19;2074342;28;20695;-67
2023/07/28 09:28:37;;;;;;;3.65;2.00;;;;;;;21.48;72.89;96145.88;2073346;28;20709;-67
2023/07/28 09:29:39;;;;;;;2.42;1.60;;;;;;;21.54;72.03;96147.91;2074219;28;20649;-67
2023/07/28 09:30:47;;;;;;;2.75;1.52;;;;;;;21.72;71.82;96146.31;2075323;28;20221;-67
2023/07/28 09:31:49;;;;;;;4.20;1.95;;;;;;;21.65;71.74;96149.56;2074310;28;20703;-68
2023/07/28 09:32:55;;;;;;;5.80;2.00;;;;;;;21.84;71.69;96153.09;2077219;28;20537;-67
2023/07/28 09:33:57;;;;;;;3.88;1.50;;;;;;;21.93;71.39;96146.84;2073848;28;20256;-67
2023/07/28 09:35:12;;;;;;;2.63;1.88;;;;;;;21.42;72.14;96153.56;2074415;28;20186;-68
2023/07/28 09:36:17;;;;;;;2.53;1.52;;;;;;;21.50;73.16;96148.38;2074709;28;20205;-67
2023/07/28 09:37:19;;;;;;;3.35;1.45;;;;;;;21.35;73.18;96156.00;2073619;28;20250;-67
2023/07/28 09:38:22;;;;;;;3.28;1.80;;;;;;;21.36;73.16;96152.34;2075447;28;20209;-67
2023/07/28 09:39:24;;;;;;;2.67;1.40;;;;;;;21.11;73.22;96156.53;2074250;28;20247;-67
2023/07/28 09:40:27;;;;;;;3.28;1.90;;;;;;;20.92;74.59;96146.81;2074218;28;20208;-67
2023/07/28 09:41:34;;;;;;;6.30;1.90;;;;;;;20.85;74.80;96149.22;2074104;28;20201;-67
2023/07/28 09:42:36;;;;;;;3.65;1.70;;;;;;;20.96;74.57;96145.53;2075537;28;20236;-67
2023/07/28 09:43:39;;;;;;;3.15;1.35;;;;;;;20.75;75.11;96145.72;2078780;28;20269;-67
2023/07/28 09:44:41;;;;;;;3.83;1.85;;;;;;;20.77;75.40;96143.78;2078009;28;20198;-67
2023/07/28 09:45:43;;;;;;;2.60;1.60;;;;;;;20.68;75.67;96151.63;2073859;28;20251;-68
2023/07/28 09:46:53;;;;;;;3.28;2.00;;;;;;;20.59;75.91;96152.44;2076443;28;20212;-68
2023/07/28 09:47:58;;;;;;;2.85;1.80;;;;;;;20.46;76.56;96149.28;2073948;28;20289;-67
2023/07/28 09:49:04;;;;;;;2.80;1.55;;;;;;;20.53;76.64;96155.66;2078576;28;20448;-67
2023/07/28 09:50:09;;;;;;;3.15;1.70;;;;;;;20.52;76.77;96168.09;2077608;28;20287;-67
2023/07/28 09:51:21;;;;;;;5.20;1.25;;;;;;;20.63;76.46;96153.84;2076066;28;20247;-67
2023/07/28 09:52:27;;;;;;;3.00;1.70;;;;;;;20.82;75.85;96157.47;2071251;28;20265;-67
2023/07/28 09:53:29;;;;;;;2.58;1.65;;;;;;;20.80;75.91;96151.47;2074064;28;20197;-67
2023/07/28 09:54:36;;;;;;;4.22;2.67;;;;;;;20.85;75.67;96157.19;2073355;28;20209;-67
2023/07/28 09:55:40;;;;;;;8.23;1.80;;;;;;;20.86;76.33;96153.53;2073579;28;20201;-68
2023/07/28 09:56:45;;;;;;;4.25;1.50;;;;;;;20.75;76.02;96153.69;2074015;28;20225;-67
2023/07/28 09:57:55;;;;;;;3.78;1.80;;;;;;;20.66;77.00;96161.53;2074066;28;20201;-67
2023/07/28 09:58:58;;;;;;;1.92;1.25;;;;;;;20.35;76.93;96156.41;2073649;28;20226;-67
2023/07/28 10:00:02;;;;;;;2.53;1.35;;;;;;;20.18;77.25;96155.28;2073978;28;20282;-67
2023/07/28 10:01:05;;;;;;;2.15;1.30;;;;;;;20.20;77.76;96158.66;2073918;28;20198;-67
2023/07/28 10:02:07;;;;;;;1.98;1.27;;;;;;;20.20;78.32;96153.34;2073778;28;20220;-67
2023/07/28 10:03:11;;;;;;;3.40;1.45;;;;;;;20.15;77.68;96152.94;2069424;28;20222;-67
2023/07/28 10:04:14;;;;;;;2.47;1.50;;;;;;;20.24;78.11;96153.91;2073090;28;20224;-67
2023/07/28 10:05:16;;;;;;;2.05;1.30;;;;;;;20.27;78.11;96150.97;2073779;28;20625;-67
2023/07/28 10:06:19;;;;;;;2.97;1.40;;;;;;;20.25;78.01;96152.91;2073791;28;20202;-67
2023/07/28 10:07:21;;;;;;;4.13;1.20;;;;;;;20.32;77.46;96154.03;2075131;28;20225;-67
2023/07/28 10:08:24;;;;;;;3.08;1.48;;;;;;;20.16;77.38;96149.31;2081551;28;20288;-67
2023/07/28 10:09:29;;;;;;;2.55;1.30;;;;;;;20.26;77.46;96159.88;2074877;28;20728;-67
2023/07/28 10:10:31;;;;;;;1.80;1.00;;;;;;;20.25;77.77;96155.56;2074223;28;20657;-67
2023/07/28 10:11:33;;;;;;;2.10;1.20;;;;;;;20.34;77.20;96161.84;2073997;28;20284;-67
2023/07/28 10:12:50;;;;;;;3.08;1.48;;;;;;;20.43;77.03;96157.50;2071243;28;20204;-67
2023/07/28 10:16:46;;;;;;;1.88;1.00;;;;;;;20.42;77.26;96166.44;2081532;28;20538;-67
2023/07/28 10:18:00;;;;;;;3.00;1.10;;;;;;;20.26;77.96;96167.84;2085020;28;20224;-67
2023/07/28 10:21:42;;;;;;;1.80;1.05;;;;;;;20.15;78.50;96168.84;2090975;28;20559;-67
2023/07/28 10:25:10;;;;;;;2.15;0.90;;;;;;;20.14;78.33;96175.13;2115745;27;20550;-67
2023/07/28 10:28:34;;;;;;;2.28;1.10;;;;;;;20.03;78.62;96176.06;2113292;27;20538;-67
2023/07/28 10:31:54;;;;;;;2.50;1.27;;;;;;;20.06;79.33;96182.91;2110697;27;20533;-67
2023/07/28 10:32:55;;;;;;;2.75;1.25;;;;;;;20.04;78.77;96184.88;2110317;28;20192;-67
2023/07/28 10:33:57;;;;;;;2.22;1.10;;;;;;;20.12;78.67;96185.00;2098288;27;20217;-67
2023/07/28 10:35:00;;;;;;;2.60;1.05;;;;;;;20.13;79.05;96175.25;2097098;28;20203;-67
2023/07/28 10:36:13;;;;;;;2.03;1.05;;;;;;;20.14;78.59;96180.41;2096785;28;20181;-67
2023/07/28 10:37:15;;;;;;;2.15;0.98;;;;;;;20.09;78.43;96182.66;2097047;28;20243;-67
2023/07/28 10:38:34;;;;;;;2.30;1.20;;;;;;;20.21;77.83;96170.09;2096121;28;20539;-68
2023/07/28 10:39:36;;;;;;;4.63;1.15;;;;;;;20.26;77.66;96178.44;2100276;28;20791;-70
2023/07/28 10:40:40;;;;;;;1.90;1.25;;;;;;;20.30;77.35;96171.91;2100882;28;20193;-69
2023/07/28 10:42:01;;;;;;;2.70;1.13;;;;;;;20.41;76.46;96176.22;2101259;28;20194;-69
2023/07/28 10:43:04;;;;;;;2.30;1.08;;;;;;;20.70;76.54;96178.84;2103077;28;20247;-70
2023/07/28 10:44:07;;;;;;;1.75;0.90;;;;;;;20.75;76.37;96182.88;2096503;28;20224;-69
2023/07/28 10:45:09;;;;;;;2.10;1.02;;;;;;;20.77;75.72;96184.41;2098392;28;20194;-69
2023/07/28 10:46:14;;;;;;;2.83;1.10;;;;;;;21.01;75.07;96175.97;2097952;28;20603;-69
2023/07/28 10:47:16;;;;;;;1.90;1.05;;;;;;;21.00;74.77;96179.63;2098644;28;20512;-69
2023/07/28 10:48:17;;;;;;;5.40;1.15;;;;;;;20.86;74.80;96180.91;2097224;28;20247;-69
2023/07/28 10:49:19;;;;;;;2.03;1.13;;;;;;;21.01;74.40;96169.81;2098247;28;20201;-69
2023/07/28 10:50:24;;;;;;;2.50;1.20;;;;;;;21.19;74.02;96177.84;2100098;28;20657;-70
2023/07/28 10:51:33;;;;;;;3.03;1.40;;;;;;;21.58;73.42;96169.72;2097062;28;20539;-69
2023/07/28 10:52:43;;;;;;;3.05;1.42;;;;;;;21.69;72.15;96179.31;2091018;28;20273;-69
2023/07/28 10:53:44;;;;;;;2.05;1.38;;;;;;;21.73;71.66;96166.59;2098072;28;20250;-70
2023/07/28 10:54:46;;;;;;;3.08;1.50;;;;;;;21.87;71.57;96181.19;2096712;28;20192;-70
2023/07/28 10:55:47;;;;;;;2.47;1.42;;;;;;;22.04;70.98;96175.00;2102037;28;20598;-70
2023/07/28 10:56:49;;;;;;;2.25;1.30;;;;;;;22.12;71.53;96180.41;2100287;28;20274;-70
2023/07/28 10:57:52;;;;;;;4.30;1.50;;;;;;;21.89;71.63;96174.72;2102224;28;20204;-70
2023/07/28 10:59:02;;;;;;;2.22;1.35;;;;;;;21.49;71.45;96178.56;2099850;28;20250;-69
2023/07/28 11:00:05;;;;;;;2.78;1.50;;;;;;;21.67;72.08;96170.66;2098499;28;20206;-69
2023/07/28 11:01:07;;;;;;;2.20;1.23;;;;;;;21.83;72.28;96183.28;2098111;28;20279;-70
2023/07/28 11:02:14;;;;;;;2.97;1.10;;;;;;;21.66;72.51;96179.59;2102789;28;20180;-69
2023/07/28 11:03:16;;;;;;;2.10;1.20;;;;;;;21.54;72.64;96181.59;2096103;28;20187;-69
2023/07/28 11:04:20;;;;;;;2.00;1.10;;;;;;;21.38;72.61;96182.22;2098587;28;20200;-69
2023/07/28 11:05:27;;;;;;;3.10;1.65;;;;;;;21.24;72.85;96182.72;2104677;28;20660;-69
2023/07/28 11:06:29;;;;;;;2.88;1.50;;;;;;;21.23;73.54;96173.94;2100503;28;20810;-69
2023/07/28 11:07:30;;;;;;;3.60;1.45;;;;;;;21.23;73.43;96191.66;2096535;28;20192;-69
2023/07/28 11:08:32;;;;;;;3.63;1.55;;;;;;;21.19;73.63;96191.13;2097394;28;20205;-69
2023/07/28 11:09:33;;;;;;;4.25;1.73;;;;;;;20.95;74.16;96175.69;2097566;28;20195;-69
2023/07/28 11:10:35;;;;;;;3.08;1.80;;;;;;;21.14;74.45;96186.28;2096553;28;20181;-69
2023/07/28 11:11:41;;;;;;;3.20;1.50;;;;;;;21.21;74.63;96181.22;2098602;28;20240;-69
2023/07/28 11:12:50;;;;;;;2.05;1.10;;;;;;;21.07;74.67;96184.34;2104346;28;20233;-69
2023/07/28 11:13:52;;;;;;;4.63;2.10;;;;;;;21.20;74.50;96179.53;2103974;28;20215;-69
2023/07/28 11:14:54;;;;;;;4.47;1.77;;;;;;;21.20;74.50;96185.69;2102825;28;20597;-69
2023/07/28 11:15:57;;;;;;;2.75;1.50;;;;;;;21.23;74.38;96181.91;2102114;28;20199;-69
2023/07/28 11:16:59;;;;;;;2.70;1.42;;;;;;;21.44;74.05;96180.81;2098017;28;20210;-69
2023/07/28 11:18:02;;;;;;;3.67;1.50;;;;;;;21.59;73.26;96173.22;2098539;28;20192;-69
2023/07/28 11:19:10;;;;;;;2.95;1.63;;;;;;;21.59;73.09;96179.38;2099562;28;20314;-69
2023/07/28 11:20:22;;;;;;;2.33;1.30;;;;;;;21.80;73.45;96171.16;2096825;28;20206;-69
2023/07/28 11:21:24;;;;;;;2.05;1.27;;;;;;;21.90;72.74;96180.84;2097900;28;20701;-69
2023/07/28 11:22:25;;;;;;;2.90;1.50;;;;;;;21.91;72.42;96178.03;2099920;28;20275;-69
2023/07/28 11:23:27;;;;;;;2.97;1.70;;;;;;;21.79;72.39;96174.78;2102700;28;20337;-69
2023/07/28 11:24:29;;;;;;;4.28;1.40;;;;;;;21.96;72.60;96178.44;2097030;28;20200;-69
2023/07/28 11:25:31;;;;;;;2.40;1.52;;;;;;;22.05;71.40;96176.69;2095847;28;20280;-70
2023/07/28 11:26:34;;;;;;;2.85;1.27;;;;;;;21.84;71.71;96169.03;2102014;28;20197;-69
2023/07/28 11:27:37;;;;;;;2.90;1.58;;;;;;;21.91;72.73;96172.72;2096775;28;20196;-69
2023/07/28 11:28:39;;;;;;;3.05;1.40;;;;;;;21.83;71.88;96173.47;2098779;28;20586;-69
2023/07/28 11:29:41;;;;;;;2.85;1.42;;;;;;;21.80;72.39;96179.13;2099506;28;20192;-69
2023/07/28 11:30:43;;;;;;;2.75;1.45;;;;;;;21.84;72.89;96177.81;2100337;28;20189;-70
2023/07/28 11:31:45;;;;;;;2.88;1.48;;;;;;;21.73;74.01;96179.88;2096840;28;20212;-69
2023/07/28 11:32:48;;;;;;;3.60;1.83;;;;;;;21.56;72.63;96173.50;2098979;28;20310;-68
2023/07/28 11:33:50;;;;;;;4.75;1.67;;;;;;;21.58;73.21;96177.69;2101723;28;20220;-67
2023/07/28 11:34:51;;;;;;;3.40;1.33;;;;;;;21.52;72.85;96184.41;2098819;28;20204;-67
2023/07/28 11:35:53;;;;;;;2.20;1.30;;;;;;;21.46;73.57;96174.38;2095839;28;20239;-67
2023/07/28 11:36:58;;;;;;;2.60;1.63;;;;;;;21.31;73.43;96189.97;2102036;28;20233;-67
2023/07/28 11:42:09;;;;;;;8.00;1.90;;;;;;;20.76;79.06;96185.41;2092399;27;20568;-66
2023/07/28 11:45:06;;;;;;;6.20;3.10;;;;;;;20.28;78.54;96192.41;2085369;28;20563;-65
2023/07/28 11:46:33;;;;;;;8.15;4.75;;;;;;;20.07;79.01;96192.53;2081799;28;20286;-67
2023/07/28 11:47:35;;;;;;;4.25;2.33;;;;;;;19.89;81.36;96184.44;2080862;28;20207;-67
2023/07/28 11:48:37;;;;;;;4.65;2.35;;;;;;;19.82;82.96;96172.69;2078929;28;20219;-68
2023/07/28 11:49:46;;;;;;;11.85;6.90;;;;;;;19.87;81.15;96186.38;2074093;28;20317;-67
2023/07/28 11:50:48;;;;;;;5.50;2.80;;;;;;;19.81;81.62;96182.44;2074719;28;20208;-67
2023/07/28 11:51:53;;;;;;;7.40;2.50;;;;;;;19.87;81.40;96184.59;2074412;28;20777;-68
2023/07/28 11:52:56;;;;;;;3.97;2.08;;;;;;;19.77;80.84;96177.56;2073417;28;20199;-67
2023/07/28 11:53:57;;;;;;;4.10;2.13;;;;;;;19.78;80.47;96181.88;2070074;28;20666;-67
2023/07/28 11:55:00;;;;;;;3.75;2.20;;;;;;;19.80;82.82;96182.59;2071174;28;20654;-67
2023/07/28 11:56:02;;;;;;;3.28;1.90;;;;;;;19.83;83.23;96187.63;2074511;28;20290;-68
2023/07/28 11:57:08;;;;;;;3.28;1.70;;;;;;;19.82;82.47;96191.22;2074302;28;20199;-67
2023/07/28 11:58:11;;;;;;;3.85;2.20;;;;;;;19.86;82.90;96188.19;2073498;28;20191;-67
2023/07/28 11:59:18;;;;;;;3.47;2.28;;;;;;;19.72;82.03;96173.50;2072945;28;20223;-67
2023/07/28 12:00:50;;;;;;;6.57;2.47;;;;;;;19.74;83.21;96195.41;2074831;28;20198;-67
2023/07/28 12:01:52;;;;;;;5.18;2.80;;;;;;;19.73;83.90;96191.09;2074799;28;20210;-67
2023/07/28 12:06:10;;;;;;;6.40;2.22;;;;;;;19.63;85.26;96200.81;2092994;27;20577;-67
2023/07/28 12:07:19;;;;;;;4.57;3.05;;;;;;;19.66;84.90;96195.25;2092290;28;20194;-68
2023/07/28 12:08:37;;;;;;;3.95;1.90;;;;;;;19.70;87.54;96185.22;2097230;28;20205;-68
2023/07/28 12:09:59;;;;;;;6.57;2.40;;;;;;;19.76;86.36;96197.91;2083904;28;20234;-68
2023/07/28 12:13:28;;;;;;;3.58;2.10;;;;;;;20.05;86.26;96190.03;2081864;28;20573;-68
2023/07/28 12:14:34;;;;;;;5.38;2.38;;;;;;;20.21;87.75;96186.84;2078867;28;20630;-68
2023/07/28 12:15:41;;;;;;;7.40;2.45;;;;;;;20.38;88.54;96192.41;2078403;28;20893;-68
2023/07/28 12:16:47;;;;;;;4.68;2.20;;;;;;;20.46;89.96;96197.00;2080995;28;20251;-68
2023/07/28 12:20:38;;;;;;;4.45;2.30;;;;;;;20.27;86.69;96192.56;2099196;27;20557;-69
2023/07/28 12:21:42;;;;;;;4.95;2.10;;;;;;;20.38;88.14;96198.53;2094485;28;20626;-68
2023/07/28 12:25:07;;;;;;;4.70;2.63;;;;;;;20.37;86.44;96199.50;2091356;28;21072;-68
2023/07/28 12:26:08;;;;;;;3.38;2.13;;;;;;;20.45;86.39;96196.16;2090130;28;20198;-68
2023/07/28 12:27:10;;;;;;;4.22;2.50;;;;;;;20.54;87.39;96189.16;2090007;28;20192;-69
2023/07/28 12:28:14;;;;;;;3.78;2.50;;;;;;;20.51;88.42;96189.47;2088668;28;20228;-69
2023/07/28 12:29:18;;;;;;;3.33;2.38;;;;;;;20.37;89.32;96180.97;2073454;28;20217;-69
2023/07/28 12:30:35;;;;;;;7.45;2.88;;;;;;;20.78;87.87;96188.75;2072631;28;20268;-68
2023/07/28 12:31:36;;;;;;;6.35;2.15;;;;;;;20.81;85.09;96188.47;2070946;28;20214;-68
2023/07/28 12:32:41;;;;;;;4.18;2.67;;;;;;;21.04;84.85;96180.16;2071111;28;20286;-69
2023/07/28 12:34:02;;;;;;;5.55;2.80;;;;;;;20.83;83.20;96177.69;2070372;28;20238;-68
2023/07/28 12:35:04;;;;;;;6.25;2.60;;;;;;;21.07;84.37;96181.69;2069100;28;20199;-69
2023/07/28 12:36:09;;;;;;;6.78;2.72;;;;;;;20.88;83.44;96181.59;2074515;28;20225;-69
2023/07/28 12:37:13;;;;;;;5.05;2.47;;;;;;;20.83;82.80;96167.09;2070594;28;20210;-71
2023/07/28 12:38:15;;;;;;;4.72;2.70;;;;;;;20.98;82.62;96178.09;2074633;28;20208;-70
2023/07/28 12:39:19;;;;;;;6.25;2.80;;;;;;;21.12;84.03;96179.44;2073205;28;20218;-68
2023/07/28 12:40:24;;;;;;;6.43;2.60;;;;;;;20.92;86.03;96174.19;2071459;28;20289;-70
2023/07/28 12:41:28;;;;;;;5.65;3.60;;;;;;;21.18;84.99;96173.53;2072021;28;20203;-70
2023/07/28 12:45:29;;;;;;;4.30;2.47;;;;;;;20.98;83.96;96175.44;2089339;28;21065;-71
2023/07/28 12:46:50;;;;;;;4.45;2.53;;;;;;;20.98;84.12;96176.25;2089783;28;20710;-71
2023/07/28 12:50:31;;;;;;;4.97;2.10;;;;;;;20.69;84.20;96184.25;2101364;27;20555;-70
2023/07/28 12:54:11;;;;;;;5.10;2.25;;;;;;;20.37;85.69;96182.78;2099254;27;20555;-69
2023/07/28 12:57:48;;;;;;;8.48;3.03;;;;;;;20.15;88.17;96192.69;2082337;28;20574;-70
2023/07/28 13:01:23;;;;;;;4.00;2.50;;;;;;;19.87;88.82;96200.47;2107687;27;21026;-70
2023/07/28 13:04:54;;;;;;;4.85;2.58;;;;;;;20.03;89.60;96202.56;2099897;27;20571;-70
2023/07/28 13:08:13;;;;;;;6.00;2.45;;;;;;;19.95;91.68;96196.28;2100636;27;20573;-70
2023/07/28 13:11:35;;;;;;;5.90;3.30;;;;;;;19.83;93.21;96193.78;2100122;27;20568;-70
2023/07/28 14:52:18;;;;;;;9.48;4.32;;;;;;;18.87;100.00;96195.91;2107915;27;20564;-69
2023/07/28 14:54:49;;;;;;;11.38;3.88;;;;;;;19.08;100.00;96207.31;2082970;28;20568;-67
2023/07/28 14:55:51;;;;;;;7.97;4.63;;;;;;;19.38;100.00;96210.91;2080182;28;20581;-67
2023/07/28 14:56:52;;;;;;;10.43;4.20;;;;;;;19.38;98.21;96210.91;2081737;28;20197;-68
2023/07/28 14:57:54;;;;;;;7.05;3.90;;;;;;;19.38;98.04;96205.59;2080965;28;20217;-68
2023/07/28 14:58:56;;;;;;;10.45;3.90;;;;;;;19.39;96.74;96207.28;2077140;28;20422;-68
2023/07/28 15:01:47;;;;;;;6.55;3.45;;;;;;;19.41;96.88;96209.81;2086240;28;20553;-70
2023/07/28 15:04:52;;;;;;;6.75;3.53;;;;;;;19.45;96.76;96218.31;2091024;28;20873;-67
